createdAt,value
2022-09-27T00:03:03.125Z,98381.38
2022-09-27T00:06:08.106Z,98373.16
2022-09-27T00:09:11.905Z,98379.66
2022-09-27T00:12:15.161Z,98385.94
2022-09-27T00:15:20.252Z,98382.13
2022-09-27T00:18:22.913Z,98375.84
2022-09-27T00:21:26.214Z,98376.81
2022-09-27T00:24:28.911Z,98360.44
2022-09-27T00:27:32.126Z,98362.03
2022-09-27T00:30:42.354Z,98355.00
2022-09-27T00:33:45.090Z,98351.06
2022-09-27T00:36:48.703Z,98349.47
2022-09-27T00:39:51.865Z,98353.28
2022-09-27T00:42:54.897Z,98330.47
2022-09-27T00:46:04.354Z,98340.22
2022-09-27T00:49:14.988Z,98338.59
2022-09-27T00:52:22.690Z,98332.19
2022-09-27T00:55:30.595Z,98334.91
2022-09-27T00:58:37.585Z,98324.81
2022-09-27T01:01:42.103Z,98327.41
2022-09-27T01:04:46.175Z,98323.81
2022-09-27T01:07:48.896Z,98313.84
2022-09-27T01:11:04.669Z,98320.13
2022-09-27T01:14:39.343Z,98312.97
2022-09-27T01:17:57.890Z,98321.22
2022-09-27T01:21:44.791Z,98312.34
2022-09-27T01:24:58.883Z,98309.53
2022-09-27T01:28:16.747Z,98294.97
2022-09-27T01:31:26.808Z,98308.53
2022-09-27T01:34:39.346Z,98316.66
2022-09-27T01:37:50.500Z,98327.41
2022-09-27T01:40:57.902Z,98312.22
2022-09-27T01:44:05.513Z,98327.28
2022-09-27T01:47:16.131Z,98322.59
2022-09-27T01:50:24.489Z,98322.09
2022-09-27T01:53:33.079Z,98315.34
2022-09-27T01:56:41.570Z,98339.34
2022-09-27T01:59:48.213Z,98329.38
2022-09-27T02:02:58.751Z,98323.59
2022-09-27T02:06:04.752Z,98321.97
2022-09-27T02:09:11.422Z,98324.09
2022-09-27T02:12:17.778Z,98324.22
2022-09-27T02:15:21.405Z,98319.78
2022-09-27T02:18:34.302Z,98316.94
2022-09-27T02:21:43.899Z,98318.91
2022-09-27T02:24:52.261Z,98316.94
2022-09-27T02:28:00.591Z,98318.91
2022-09-27T02:31:03.918Z,98325.19
2022-09-27T02:34:12.432Z,98324.31
2022-09-27T02:37:15.891Z,98332.34
2022-09-27T02:40:20.180Z,98316.69
2022-09-27T02:43:29.402Z,98326.69
2022-09-27T02:46:49.003Z,98320.63
2022-09-27T02:50:06.897Z,98328.66
2022-09-27T02:53:21.299Z,98329.50
2022-09-27T02:56:27.690Z,98330.38
2022-09-27T02:59:40.296Z,98322.34
2022-09-27T03:02:54.278Z,98331.75
2022-09-27T03:06:05.686Z,98325.47
2022-09-27T03:09:15.720Z,98317.44
2022-09-27T03:12:26.321Z,98323.59
2022-09-27T03:15:29.083Z,98322.88
2022-09-27T03:18:32.276Z,98327.41
2022-09-27T03:21:36.339Z,98330.00
2022-09-27T03:24:39.560Z,98330.25
2022-09-27T03:27:42.378Z,98330.47
2022-09-27T03:30:47.252Z,98335.91
2022-09-27T03:33:49.978Z,98324.06
2022-09-27T03:36:54.447Z,98333.94
2022-09-27T03:39:57.143Z,98327.53
2022-09-27T03:42:59.822Z,98342.81
2022-09-27T03:46:02.627Z,98333.94
2022-09-27T03:49:05.439Z,98338.03
2022-09-27T03:52:09.968Z,98340.72
2022-09-27T03:55:13.381Z,98347.25
2022-09-27T03:58:16.657Z,98340.34
2022-09-27T04:01:20.275Z,98356.09
2022-09-27T04:04:23.130Z,98362.50
2022-09-27T04:07:28.124Z,98364.72
2022-09-27T04:10:31.301Z,98360.66
2022-09-27T04:13:33.975Z,98361.75
2022-09-27T04:16:37.180Z,98366.31
2022-09-27T04:19:40.552Z,98370.88
2022-09-27T04:22:45.567Z,98372.81
2022-09-27T04:25:49.059Z,98375.41
2022-09-27T04:29:43.186Z,98388.97
2022-09-27T04:32:46.529Z,98379.97
2022-09-27T04:36:07.239Z,98395.66
2022-09-27T04:39:11.843Z,98413.84
2022-09-27T04:42:14.611Z,98421.19
2022-09-27T04:45:17.772Z,98414.03
2022-09-27T04:48:21.194Z,98422.50
2022-09-27T04:51:23.876Z,98418.19
2022-09-27T04:54:29.356Z,98429.25
2022-09-27T04:57:32.613Z,98432.94
2022-09-27T05:00:35.297Z,98433.69
2022-09-27T05:03:38.183Z,98435.53
2022-09-27T05:06:40.842Z,98439.09
2022-09-27T05:09:45.805Z,98448.09
2022-09-27T05:12:48.543Z,98448.94
2022-09-27T05:15:52.876Z,98457.81
2022-09-27T05:18:56.980Z,98456.09
2022-09-27T05:21:59.683Z,98454.13
2022-09-27T05:25:03.689Z,98451.19
2022-09-27T05:28:07.082Z,98457.59
2022-09-27T05:31:10.794Z,98462.53
2022-09-27T05:34:13.526Z,98463.41
2022-09-27T05:37:16.657Z,98472.28
2022-09-27T05:40:40.265Z,98466.66
2022-09-27T05:43:43.932Z,98485.47
2022-09-27T05:46:46.968Z,98485.25
2022-09-27T05:49:50.021Z,98484.88
2022-09-27T05:52:53.724Z,98487.59
2022-09-27T05:55:57.731Z,98494.31
2022-09-27T05:59:00.955Z,98488.41
2022-09-27T06:02:03.733Z,98499.44
2022-09-27T06:05:08.220Z,98493.56
2022-09-27T06:08:13.305Z,98504.03
2022-09-27T06:11:17.666Z,98502.94
2022-09-27T06:14:20.985Z,98500.00
2022-09-27T06:17:23.657Z,98497.78
2022-09-27T06:20:27.286Z,98499.06
2022-09-27T06:23:32.701Z,98504.75
2022-09-27T06:26:37.685Z,98518.94
2022-09-27T06:29:40.354Z,98509.69
2022-09-27T06:32:43.578Z,98515.84
2022-09-27T06:35:46.968Z,98514.88
2022-09-27T06:38:49.781Z,98524.97
2022-09-27T06:41:58.168Z,98524.34
2022-09-27T06:45:01.391Z,98526.22
2022-09-27T06:48:04.919Z,98538.78
2022-09-27T06:51:08.010Z,98532.88
2022-09-27T06:54:10.659Z,98536.34
2022-09-27T06:57:35.445Z,98538.56
2022-09-27T07:00:37.650Z,98552.28
2022-09-27T07:03:41.733Z,98551.69
2022-09-27T07:06:44.580Z,98553.53
2022-09-27T07:09:47.300Z,98562.28
2022-09-27T07:12:52.431Z,98567.47
2022-09-27T07:15:55.070Z,98570.22
2022-09-27T07:18:58.335Z,98581.81
2022-09-27T07:22:01.003Z,98577.16
2022-09-27T07:25:03.844Z,98579.25
2022-09-27T07:28:09.749Z,98579.16
2022-09-27T07:31:13.938Z,98587.09
2022-09-27T07:34:19.001Z,98591.75
2022-09-27T07:37:21.705Z,98601.97
2022-09-27T07:40:24.909Z,98606.81
2022-09-27T07:43:29.237Z,98618.75
2022-09-27T07:46:31.969Z,98614.66
2022-09-27T07:49:34.706Z,98624.50
2022-09-27T07:52:41.051Z,98624.63
2022-09-27T07:55:44.165Z,98627.81
2022-09-27T07:58:48.180Z,98636.22
2022-09-27T08:01:51.012Z,98634.00
2022-09-27T08:04:53.801Z,98636.44
2022-09-27T08:07:57.554Z,98646.31
2022-09-27T08:11:00.755Z,98652.78
2022-09-27T08:14:06.021Z,98657.72
2022-09-27T08:17:11.416Z,98655.25
2022-09-27T08:20:14.985Z,98661.09
2022-09-27T08:23:17.784Z,98661.97
2022-09-27T08:26:20.786Z,98653.41
2022-09-27T08:29:24.800Z,98663.78
2022-09-27T08:32:28.847Z,98670.56
2022-09-27T08:35:34.173Z,98677.59
2022-09-27T08:38:37.165Z,98683.38
2022-09-27T08:41:46.073Z,98680.78
2022-09-27T08:45:03.632Z,98687.94
2022-09-27T08:48:07.708Z,98691.03
2022-09-27T08:51:14.627Z,98691.69
2022-09-27T08:54:22.066Z,98692.75
2022-09-27T08:57:26.088Z,98690.94
2022-09-27T09:00:31.005Z,98687.84
2022-09-27T09:03:37.965Z,98686.66
2022-09-27T09:06:44.439Z,98679.28
2022-09-27T09:09:54.840Z,98679.03
2022-09-27T09:13:08.768Z,98655.41
2022-09-27T09:16:23.792Z,98679.06
2022-09-27T09:19:45.823Z,98664.88
2022-09-27T09:23:05.868Z,98675.56
2022-09-27T09:26:17.155Z,98671.78
2022-09-27T09:29:37.493Z,98665.97
2022-09-27T09:32:56.179Z,98662.50
2022-09-27T09:36:05.224Z,98666.66
2022-09-27T09:39:15.421Z,98666.84
2022-09-27T09:42:25.460Z,98657.88
2022-09-27T09:45:32.077Z,98662.16
2022-09-27T09:48:42.193Z,98677.84
2022-09-27T09:51:50.307Z,98669.66
2022-09-27T09:54:58.779Z,98667.34
2022-09-27T09:58:08.172Z,98664.09
2022-09-27T10:01:18.538Z,98656.50
2022-09-27T10:04:25.418Z,98665.34
2022-09-27T10:07:30.038Z,98664.09
2022-09-27T10:10:33.187Z,98665.53
2022-09-27T10:13:37.238Z,98664.88
2022-09-27T10:16:43.812Z,98672.19
2022-09-27T10:19:49.909Z,98677.22
2022-09-27T10:22:57.024Z,98668.28
2022-09-27T10:26:02.067Z,98668.09
2022-09-27T10:29:23.385Z,98665.63
2022-09-27T10:32:31.375Z,98660.63
2022-09-27T10:35:39.130Z,98643.94
2022-09-27T10:38:53.949Z,98644.59
2022-09-27T10:41:57.009Z,98642.63
2022-09-27T10:44:59.858Z,98651.69
2022-09-27T10:48:03.816Z,98648.75
2022-09-27T10:51:20.676Z,98636.16
2022-09-27T10:54:28.012Z,98635.56
2022-09-27T10:57:32.026Z,98625.81
2022-09-27T11:00:37.538Z,98626.66
2022-09-27T11:03:48.996Z,98629.69
2022-09-27T11:06:53.418Z,98629.25
2022-09-27T11:10:03.410Z,98629.53
2022-09-27T11:13:12.851Z,98628.88
2022-09-27T11:16:31.225Z,98630.56
2022-09-27T11:20:00.531Z,98639.63
2022-09-27T11:23:21.797Z,98639.09
2022-09-27T11:26:38.473Z,98637.97
2022-09-27T11:29:51.822Z,98634.84
2022-09-27T11:33:20.853Z,98637.91
2022-09-27T11:36:36.784Z,98631.47
2022-09-27T11:39:55.305Z,98634.88
2022-09-27T11:43:19.327Z,98634.38
2022-09-27T11:46:36.614Z,98618.78
2022-09-27T11:50:13.530Z,98628.50
2022-09-27T11:53:25.692Z,98627.84
2022-09-27T11:56:40.656Z,98616.03
2022-09-27T12:00:06.844Z,98611.28
2022-09-27T12:03:52.371Z,98608.56
2022-09-27T12:07:02.548Z,98613.13
2022-09-27T12:10:13.872Z,98611.97
2022-09-27T12:13:25.108Z,98604.50
2022-09-27T12:16:28.988Z,98603.13
2022-09-27T12:19:36.943Z,98593.06
2022-09-27T12:22:58.615Z,98600.13
2022-09-27T12:26:07.305Z,98581.03
2022-09-27T12:29:16.349Z,98566.38
2022-09-27T12:32:25.148Z,98589.66
2022-09-27T12:35:30.637Z,98577.75
2022-09-27T12:38:41.348Z,98579.75
2022-09-27T12:41:51.394Z,98577.75
2022-09-27T12:44:55.960Z,98579.91
2022-09-27T12:48:09.397Z,98580.19
2022-09-27T12:51:15.083Z,98584.66
2022-09-27T12:54:38.989Z,98574.44
2022-09-27T12:57:51.314Z,98549.16
2022-09-27T13:01:00.970Z,98571.00
2022-09-27T13:04:25.345Z,98581.03
2022-09-27T13:07:44.030Z,98579.59
2022-09-27T13:10:58.640Z,98577.44
2022-09-27T13:14:04.355Z,98571.56
2022-09-27T13:17:33.789Z,98573.00
2022-09-27T13:20:48.950Z,98566.53
2022-09-27T13:23:52.489Z,98579.91
2022-09-27T13:26:55.854Z,98573.59
2022-09-27T13:30:49.598Z,98580.47
2022-09-27T13:33:54.978Z,98585.19
2022-09-27T13:36:57.757Z,98589.03
2022-09-27T13:40:15.231Z,98575.84
2022-09-27T13:43:48.898Z,98580.47
2022-09-27T13:46:56.444Z,98581.16
2022-09-27T13:50:15.862Z,98559.19
2022-09-27T13:53:26.309Z,98585.03
2022-09-27T13:56:52.820Z,98583.88
2022-09-27T14:00:00.662Z,98573.84
2022-09-27T14:03:07.847Z,98571.84
2022-09-27T14:06:16.477Z,98567.97
2022-09-27T14:09:22.441Z,98556.31
2022-09-27T14:12:29.781Z,98573.13
2022-09-27T14:15:55.205Z,98573.94
2022-09-27T14:18:59.581Z,98571.78
2022-09-27T14:22:03.657Z,98567.75
2022-09-27T14:25:18.821Z,98567.09
2022-09-27T14:28:24.090Z,98569.19
2022-09-27T14:31:27.727Z,98585.34
2022-09-27T14:34:30.673Z,98583.25
2022-09-27T14:37:36.321Z,98598.59
2022-09-27T14:40:44.689Z,98594.78
2022-09-27T14:43:50.734Z,98601.66
2022-09-27T14:47:10.214Z,98599.41
2022-09-27T14:50:20.033Z,98589.66
2022-09-27T14:53:26.429Z,98610.84
2022-09-27T14:56:32.457Z,98596.53
2022-09-27T14:59:37.853Z,98589.69
2022-09-27T15:02:42.621Z,98597.53
2022-09-27T15:05:46.018Z,98592.09
2022-09-27T15:08:50.442Z,98588.41
2022-09-27T15:11:56.786Z,98581.88
2022-09-27T15:15:00.183Z,98584.19
2022-09-27T15:18:04.840Z,98584.19
2022-09-27T15:21:09.071Z,98583.75
2022-09-27T15:24:41.322Z,98578.84
2022-09-27T15:27:49.619Z,98581.28
2022-09-27T15:30:56.154Z,98591.41
2022-09-27T15:33:59.518Z,98594.38
2022-09-27T15:37:03.782Z,98589.41
2022-09-27T15:41:05.960Z,98591.59
2022-09-27T15:44:36.752Z,98600.28
2022-09-27T15:47:51.265Z,98592.88
2022-09-27T15:50:54.430Z,98599.16
2022-09-27T15:53:57.141Z,98594.56
2022-09-27T15:57:05.394Z,98591.53
2022-09-27T16:00:13.546Z,98590.25
2022-09-27T16:03:16.993Z,98601.13
2022-09-27T16:06:20.227Z,98601.34
2022-09-27T16:09:23.909Z,98600.81
2022-09-27T16:12:30.287Z,98599.19
2022-09-27T16:15:33.301Z,98604.25
2022-09-27T16:18:36.167Z,98608.41
2022-09-27T16:21:39.131Z,98616.88
2022-09-27T16:24:41.843Z,98629.88
2022-09-27T16:27:46.644Z,98631.16
2022-09-27T16:30:49.619Z,98644.53
2022-09-27T16:33:52.559Z,98642.84
2022-09-27T16:36:55.263Z,98625.56
2022-09-27T16:39:58.272Z,98657.44
2022-09-27T16:43:05.131Z,98663.38
2022-09-27T16:46:13.181Z,98659.31
2022-09-27T16:49:29.887Z,98661.66
2022-09-27T16:52:34.268Z,98665.59
2022-09-27T16:55:37.456Z,98667.84
2022-09-27T16:58:41.649Z,98669.31
2022-09-27T17:01:44.839Z,98670.06
2022-09-27T17:04:47.955Z,98676.22
2022-09-27T17:07:51.986Z,98673.94
2022-09-27T17:10:57.163Z,98675.88
2022-09-27T17:14:02.220Z,98676.44
2022-09-27T17:17:04.938Z,98682.63
2022-09-27T17:20:09.439Z,98676.53
2022-09-27T17:23:12.763Z,98680.06
2022-09-27T17:26:17.923Z,98679.69
2022-09-27T17:29:22.320Z,98680.34
2022-09-27T17:32:25.154Z,98687.53
2022-09-27T17:35:27.861Z,98688.25
2022-09-27T17:38:30.662Z,98686.09
2022-09-27T17:41:39.579Z,98652.19
2022-09-27T17:44:44.279Z,98677.63
2022-09-27T17:48:04.512Z,98689.34
2022-09-27T17:51:07.557Z,98682.31
2022-09-27T17:54:11.838Z,98681.22
2022-09-27T17:57:14.899Z,98682.06
2022-09-27T18:00:20.366Z,98664.66
2022-09-27T18:03:23.314Z,98687.47
2022-09-27T18:06:27.206Z,98672.13
2022-09-27T18:09:29.923Z,98691.81
2022-09-27T18:12:33.004Z,98690.84
2022-09-27T18:15:37.882Z,98691.19
2022-09-27T18:18:42.226Z,98691.53
2022-09-27T18:21:45.576Z,98685.50
2022-09-27T18:24:48.284Z,98697.31
2022-09-27T18:27:52.235Z,98695.28
2022-09-27T18:30:56.839Z,98699.72
2022-09-27T18:33:59.846Z,98690.91
2022-09-27T18:37:02.616Z,98705.03
2022-09-27T18:40:05.997Z,98702.63
2022-09-27T18:43:08.766Z,98702.31
2022-09-27T18:46:34.388Z,98699.50
2022-09-27T18:49:38.124Z,98709.69
2022-09-27T18:52:41.677Z,98707.97
2022-09-27T18:55:44.401Z,98711.56
2022-09-27T18:58:47.077Z,98722.19
2022-09-27T19:01:51.681Z,98728.88
2022-09-27T19:04:54.407Z,98740.25
2022-09-27T19:07:57.203Z,98734.44
2022-09-27T19:11:06.183Z,98732.47
2022-09-27T19:14:08.915Z,98743.97
2022-09-27T19:17:12.959Z,98733.91
2022-09-27T19:20:15.630Z,98736.16
2022-09-27T19:23:18.527Z,98736.06
2022-09-27T19:26:23.640Z,98743.31
2022-09-27T19:29:26.678Z,98742.09
2022-09-27T19:32:31.066Z,98751.53
2022-09-27T19:35:33.761Z,98751.09
2022-09-27T19:38:38.422Z,98750.56
2022-09-27T19:41:41.124Z,98746.53
2022-09-27T19:44:43.998Z,98742.88
2022-09-27T19:47:48.298Z,98745.06
2022-09-27T19:50:58.062Z,98738.53
2022-09-27T19:54:00.782Z,98742.34
2022-09-27T19:57:03.646Z,98745.16
2022-09-27T20:00:08.254Z,98737.00
2022-09-27T20:03:13.217Z,98727.44
2022-09-27T20:06:19.129Z,98743.66
2022-09-27T20:09:22.673Z,98737.13
2022-09-27T20:12:25.417Z,98733.28
2022-09-27T20:15:28.092Z,98740.31
2022-09-27T20:18:32.307Z,98738.13
2022-09-27T20:21:35.019Z,98749.44
2022-09-27T20:24:37.839Z,98754.94
2022-09-27T20:27:40.756Z,98736.50
2022-09-27T20:30:43.770Z,98741.03
2022-09-27T20:33:50.705Z,98743.84
2022-09-27T20:36:53.597Z,98749.16
2022-09-27T20:39:56.339Z,98746.44
2022-09-27T20:42:59.120Z,98730.81
2022-09-27T20:46:02.867Z,98737.69
2022-09-27T20:49:09.034Z,98731.16
2022-09-27T20:52:11.768Z,98723.25
2022-09-27T20:55:14.621Z,98731.56
2022-09-27T20:58:17.563Z,98732.31
2022-09-27T21:01:21.859Z,98728.88
2022-09-27T21:04:26.043Z,98734.75
2022-09-27T21:07:28.718Z,98700.44
2022-09-27T21:10:31.444Z,98730.25
2022-09-27T21:13:34.451Z,98723.19
2022-09-27T21:16:37.192Z,98733.53
2022-09-27T21:19:41.710Z,98721.94
2022-09-27T21:22:44.755Z,98715.75
2022-09-27T21:25:49.234Z,98715.09
2022-09-27T21:28:53.511Z,98706.41
2022-09-27T21:31:56.279Z,98710.06
2022-09-27T21:35:01.446Z,98703.63
2022-09-27T21:38:04.422Z,98705.34
2022-09-27T21:41:09.014Z,98697.34
2022-09-27T21:44:12.725Z,98707.09
2022-09-27T21:47:15.491Z,98705.75
2022-09-27T21:50:19.582Z,98702.56
2022-09-27T21:53:22.282Z,98697.06
2022-09-27T21:56:27.893Z,98693.28
2022-09-27T21:59:30.588Z,98694.94
2022-09-27T22:02:33.556Z,98695.22
2022-09-27T22:05:44.738Z,98690.38
2022-09-27T22:08:48.484Z,98688.84
2022-09-27T22:11:51.859Z,98681.97
2022-09-27T22:14:54.569Z,98677.88
2022-09-27T22:17:57.574Z,98666.47
2022-09-27T22:21:06.991Z,98638.88
2022-09-27T22:24:13.425Z,98657.44
2022-09-27T22:27:16.365Z,98654.31
2022-09-27T22:30:19.142Z,98647.88
2022-09-27T22:33:21.835Z,98643.41
2022-09-27T22:36:28.351Z,98642.00
2022-09-27T22:39:31.365Z,98616.47
2022-09-27T22:42:34.057Z,98628.88
2022-09-27T22:45:36.917Z,98620.44
2022-09-27T22:48:40.063Z,98614.63
2022-09-27T22:51:44.125Z,98598.19
2022-09-27T22:54:47.108Z,98599.50
2022-09-27T22:57:49.799Z,98599.09
2022-09-27T23:00:52.574Z,98600.78
2022-09-27T23:03:56.019Z,98580.78
2022-09-27T23:07:00.467Z,98580.50
2022-09-27T23:10:03.171Z,98569.44
2022-09-27T23:13:06.259Z,98567.41
2022-09-27T23:16:11.251Z,98567.28
2022-09-27T23:19:16.454Z,98559.72
2022-09-27T23:22:20.838Z,98541.41
2022-09-27T23:25:23.588Z,98540.22
2022-09-27T23:28:26.664Z,98539.88
2022-09-27T23:31:31.209Z,98535.22
2022-09-27T23:34:34.328Z,98527.66
2022-09-27T23:37:38.552Z,98518.44
2022-09-27T23:40:42.200Z,98517.25
2022-09-27T23:43:45.499Z,98495.94
2022-09-27T23:46:48.422Z,98497.97
2022-09-27T23:49:51.250Z,98494.19
2022-09-27T23:52:55.304Z,98493.09
2022-09-27T23:56:02.882Z,98485.00
2022-09-27T23:59:05.991Z,98491.22
